Terminal Aerodrome Forecast
Issued by NWS

Home | Current Version | Previous Version | Text Only | Print | Product List | Glossary On
Versions: 1 2 3 4 5 6 7 8 9 10 11 12 13 14
645
FTUS46 KSTO 231739
TAFRDD
TAF
KRDD 231739Z 2318/2418 19007KT P6SM -SHRA BKN025 OVC035
      TEMPO 2400/2404 5SM -SHRA OVC015
     FM241400 36007KT P6SM SCT025 BKN060=

USA.gov is the U.S. government's official web portal to all federal, state and local government web resources and services.